createdAt,value
2018-05-29T00:00:01.611Z,99714.13
2018-05-29T00:02:29.573Z,99667.44
2018-05-29T00:04:57.104Z,99725.30
2018-05-29T00:07:24.634Z,99738.50
2018-05-29T00:09:52.190Z,99729.36
2018-05-29T00:12:19.730Z,99792.30
2018-05-29T00:14:47.611Z,99789.26
2018-05-29T00:17:15.136Z,99779.11
2018-05-29T00:19:42.673Z,99818.70
2018-05-29T00:22:10.241Z,99817.69
2018-05-29T00:24:37.833Z,99798.39
2018-05-29T00:27:05.368Z,99835.96
2018-05-29T00:29:32.898Z,99882.66
2018-05-29T00:32:00.452Z,99875.55
2018-05-29T00:34:27.979Z,99867.43
2018-05-29T00:36:55.531Z,99895.86
2018-05-29T00:39:23.056Z,99917.18
2018-05-29T00:41:50.611Z,99974.03
2018-05-29T00:44:18.166Z,99977.08
2018-05-29T00:46:46.082Z,100015.66
2018-05-29T00:49:13.607Z,100058.30
2018-05-29T00:51:41.134Z,100101.97
2018-05-29T00:54:09.119Z,100081.66
2018-05-29T00:56:36.687Z,100107.04
2018-05-29T00:59:04.209Z,100119.22
2018-05-29T01:01:31.767Z,100122.27
2018-05-29T01:03:59.327Z,100120.23
2018-05-29T01:06:26.891Z,100166.95
2018-05-29T01:08:54.428Z,100123.28
2018-05-29T01:11:22.296Z,100161.87
2018-05-29T01:13:49.839Z,100187.25
2018-05-29T01:16:17.391Z,100199.44
2018-05-29T01:18:44.955Z,100220.76
2018-05-29T01:21:12.496Z,100209.59
2018-05-29T01:23:40.402Z,100205.53
2018-05-29T01:26:07.935Z,100220.76
2018-05-29T01:28:35.475Z,100210.61
2018-05-29T01:31:03.040Z,100223.80
2018-05-29T01:33:30.995Z,100233.95
2018-05-29T01:35:58.541Z,100242.08
2018-05-29T01:38:26.086Z,100253.25
2018-05-29T01:40:53.648Z,100244.11
2018-05-29T01:43:21.188Z,100268.48
2018-05-29T01:45:48.747Z,100303.00
2018-05-29T01:48:16.307Z,100255.28
2018-05-29T01:50:43.859Z,100265.44
2018-05-29T01:53:11.428Z,100278.64
2018-05-29T01:55:38.953Z,100277.62
2018-05-29T01:58:06.519Z,100303.00
2018-05-29T02:00:34.065Z,100330.42
2018-05-29T02:03:01.632Z,100306.05
2018-05-29T02:05:29.312Z,100357.83
2018-05-29T02:07:56.895Z,100388.30
2018-05-29T02:10:24.464Z,100405.56
2018-05-29T02:12:52.054Z,100408.61
2018-05-29T02:15:19.596Z,100463.44
2018-05-29T02:17:47.147Z,100459.38
2018-05-29T02:20:14.711Z,100453.28
2018-05-29T02:22:42.279Z,100488.82
2018-05-29T02:25:09.876Z,100503.03
2018-05-29T02:27:37.411Z,100487.80
2018-05-29T02:30:04.943Z,100494.91
2018-05-29T02:32:32.637Z,100514.20
2018-05-29T02:35:00.184Z,100506.09
2018-05-29T02:37:27.731Z,100541.63
2018-05-29T02:39:55.398Z,100563.97
2018-05-29T02:42:22.930Z,100568.03
2018-05-29T02:44:50.462Z,100543.66
2018-05-29T02:47:18.203Z,100564.98
2018-05-29T02:49:45.747Z,100552.80
2018-05-29T02:52:13.279Z,100570.06
2018-05-29T02:54:40.835Z,100591.38
2018-05-29T02:57:08.400Z,100598.48
2018-05-29T02:59:35.927Z,100636.06
2018-05-29T03:02:03.487Z,100611.69
2018-05-29T03:04:31.031Z,100645.20
2018-05-29T03:06:58.615Z,100607.63
2018-05-29T03:09:26.159Z,100640.13
2018-05-29T03:11:53.686Z,100654.34
2018-05-29T03:14:21.255Z,100685.82
2018-05-29T03:16:48.801Z,100672.62
2018-05-29T03:19:16.471Z,100674.66
2018-05-29T03:21:44.006Z,100722.38
2018-05-29T03:24:11.534Z,100671.61
2018-05-29T03:26:39.096Z,100714.25
2018-05-29T03:29:06.738Z,100728.47
2018-05-29T03:31:34.316Z,100723.39
2018-05-29T03:34:01.855Z,100738.63
2018-05-29T03:36:29.422Z,100752.84
2018-05-29T03:38:56.959Z,100739.64
2018-05-29T03:41:24.532Z,100696.99
2018-05-29T03:43:52.109Z,100723.39
2018-05-29T03:46:19.649Z,100723.39
2018-05-29T03:48:47.235Z,100703.09
2018-05-29T03:51:14.799Z,100700.04
2018-05-29T03:53:42.330Z,100712.22
2018-05-29T03:56:09.895Z,100709.18
2018-05-29T03:58:37.503Z,100716.29
2018-05-29T04:01:05.398Z,100685.82
2018-05-29T04:03:32.943Z,100657.39
2018-05-29T04:06:00.483Z,100647.23
2018-05-29T04:08:28.375Z,100640.13
2018-05-29T04:10:55.914Z,100603.57
2018-05-29T04:13:23.453Z,100568.03
2018-05-29T04:15:51.099Z,100531.47
2018-05-29T04:18:18.644Z,100551.78
2018-05-29T04:20:46.191Z,100510.15
2018-05-29T04:23:13.722Z,100511.16
2018-05-29T04:25:41.288Z,100425.87
2018-05-29T04:28:08.818Z,100440.08
2018-05-29T04:30:36.378Z,100415.71
2018-05-29T04:33:03.956Z,100441.09
2018-05-29T04:35:31.630Z,100396.42
2018-05-29T04:37:59.226Z,100363.93
2018-05-29T04:40:26.770Z,100342.60
2018-05-29T04:42:54.316Z,100341.59
2018-05-29T04:45:22.011Z,100312.14
2018-05-29T04:47:49.548Z,100318.23
2018-05-29T04:50:17.092Z,100309.09
2018-05-29T04:52:44.653Z,100248.17
2018-05-29T04:55:12.195Z,100225.84
2018-05-29T04:57:39.759Z,100115.16
2018-05-29T05:00:07.304Z,99941.55
2018-05-29T05:02:34.872Z,99721.23
2018-05-29T05:05:02.408Z,99555.77
2018-05-29T05:07:29.979Z,99592.31
2018-05-29T05:09:58.058Z,99536.48
2018-05-29T05:12:25.579Z,99417.70
2018-05-29T05:14:53.096Z,99386.23
2018-05-29T05:17:20.662Z,99423.80
2018-05-29T05:19:48.247Z,99171.04
2018-05-29T05:22:15.784Z,99218.75
2018-05-29T05:24:43.311Z,99120.28
2018-05-29T05:27:11.234Z,99071.56
2018-05-29T05:29:38.762Z,99154.80
2018-05-29T05:32:06.298Z,99011.68
2018-05-29T05:34:33.884Z,99126.38
2018-05-29T05:37:01.420Z,98976.16
2018-05-29T05:39:28.958Z,98917.28
2018-05-29T05:41:56.623Z,98677.77
2018-05-29T05:44:24.155Z,98608.75
2018-05-29T05:46:51.687Z,98470.72
2018-05-29T05:49:19.242Z,98260.66
2018-05-29T05:51:46.819Z,98449.41
2018-05-29T05:54:14.347Z,98434.19
2018-05-29T05:56:41.870Z,98374.31
2018-05-29T05:59:09.423Z,98460.58
2018-05-29T06:01:36.972Z,98553.94
2018-05-29T06:04:04.527Z,98326.63
2018-05-29T06:06:32.399Z,98147.00
2018-05-29T06:09:00.059Z,97810.12
2018-05-29T06:11:27.582Z,97714.75
2018-05-29T06:13:55.112Z,97689.38
2018-05-29T06:16:23.125Z,97849.70
2018-05-29T06:18:50.629Z,98044.52
2018-05-29T06:21:18.160Z,98154.11
2018-05-29T06:23:46.075Z,97882.17
2018-05-29T06:26:13.599Z,97685.33
2018-05-29T06:28:41.143Z,97975.52
2018-05-29T06:31:08.710Z,97800.99
2018-05-29T06:33:36.377Z,97579.80
2018-05-29T06:36:03.902Z,97583.86
2018-05-29T06:38:31.485Z,97287.62
2018-05-29T06:40:59.010Z,97472.27
2018-05-29T06:43:26.535Z,97520.96
2018-05-29T06:45:54.099Z,97538.20
2018-05-29T06:48:21.655Z,97459.07
2018-05-29T06:50:49.210Z,97216.60
2018-05-29T06:53:16.733Z,97297.77
2018-05-29T06:55:44.287Z,97676.19
2018-05-29T06:58:11.822Z,97316.02
2018-05-29T07:00:39.712Z,96984.30
2018-05-29T07:03:07.244Z,97026.91
2018-05-29T07:05:34.772Z,97892.31
2018-05-29T07:08:02.359Z,97983.64
2018-05-29T07:10:29.887Z,98000.88
2018-05-29T07:12:57.417Z,98136.86
2018-05-29T07:15:24.965Z,98150.05
2018-05-29T07:17:52.491Z,98078.00
2018-05-29T07:20:20.157Z,97988.70
2018-05-29T07:22:47.695Z,98021.17
2018-05-29T07:25:15.220Z,98108.45
2018-05-29T07:27:42.783Z,98148.02
2018-05-29T07:30:10.341Z,98012.05
2018-05-29T07:32:38.190Z,97840.56
2018-05-29T07:35:05.722Z,97835.48
2018-05-29T07:37:33.259Z,97954.21
2018-05-29T07:40:00.815Z,97900.43
2018-05-29T07:42:28.342Z,97902.46
2018-05-29T07:44:55.871Z,97738.08
2018-05-29T07:47:23.435Z,97824.33
2018-05-29T07:49:50.962Z,97790.84
2018-05-29T07:52:18.500Z,97576.77
2018-05-29T07:54:46.400Z,97548.36
2018-05-29T07:57:13.922Z,97572.70
2018-05-29T07:59:41.469Z,97491.54
2018-05-29T08:02:09.325Z,97250.08
2018-05-29T08:04:36.858Z,97060.38
2018-05-29T08:07:04.401Z,97030.95
2018-05-29T08:09:31.951Z,96970.09
2018-05-29T08:11:59.476Z,96913.29
2018-05-29T08:14:27.045Z,96690.12
2018-05-29T08:16:54.574Z,96757.08
2018-05-29T08:19:22.139Z,96856.48
2018-05-29T08:21:49.666Z,97009.66
2018-05-29T08:24:17.592Z,96853.44
2018-05-29T08:26:45.126Z,96926.48
2018-05-29T08:29:12.665Z,96783.45
2018-05-29T08:31:40.221Z,96816.92
2018-05-29T08:34:07.827Z,96794.61
2018-05-29T08:36:35.382Z,96530.89
2018-05-29T08:39:02.936Z,96567.40
2018-05-29T08:41:30.499Z,96569.42
2018-05-29T08:43:58.022Z,96401.06
2018-05-29T08:46:25.675Z,96374.69
2018-05-29T08:48:53.140Z,96404.10
2018-05-29T08:51:20.698Z,96225.60
2018-05-29T08:53:48.250Z,96188.08
2018-05-29T08:56:15.778Z,95989.30
2018-05-29T08:58:43.814Z,95488.36
2018-05-29T09:01:11.342Z,95702.31
2018-05-29T09:03:38.878Z,95495.46
2018-05-29T09:06:06.441Z,95420.43
2018-05-29T09:08:34.133Z,95665.81
2018-05-29T09:11:01.667Z,95527.91
2018-05-29T09:13:29.199Z,95521.83
2018-05-29T09:15:56.772Z,95633.36
2018-05-29T09:18:24.303Z,95502.56
2018-05-29T09:20:52.291Z,95602.95
2018-05-29T09:23:19.820Z,95653.64
2018-05-29T09:25:47.347Z,95288.61
2018-05-29T09:28:14.899Z,95094.97
2018-05-29T09:30:42.435Z,94818.19
2018-05-29T09:33:10.251Z,94850.63
2018-05-29T09:35:37.783Z,94713.77
2018-05-29T09:38:05.310Z,94758.38
2018-05-29T09:40:32.864Z,94923.63
2018-05-29T09:43:00.390Z,95038.19
2018-05-29T09:45:28.240Z,94732.02
2018-05-29T09:47:55.779Z,94884.09
2018-05-29T09:50:23.314Z,95029.06
2018-05-29T09:52:50.911Z,94793.86
2018-05-29T09:55:18.471Z,94679.30
2018-05-29T09:57:46.010Z,94440.07
2018-05-29T10:00:13.680Z,94266.73
2018-05-29T10:02:41.211Z,94326.55
2018-05-29T10:05:08.743Z,94352.90
2018-05-29T10:07:36.704Z,94213.02
2018-05-29T10:10:04.238Z,94367.09
2018-05-29T10:12:31.762Z,94208.97
2018-05-29T10:14:59.343Z,94338.70
2018-05-29T10:17:26.876Z,94227.20
2018-05-29T10:19:54.403Z,94130.92
2018-05-29T10:22:22.235Z,94195.79
2018-05-29T10:24:49.769Z,94089.36
2018-05-29T10:27:17.303Z,94140.04
2018-05-29T10:29:45.222Z,94075.17
2018-05-29T10:32:12.759Z,94015.38
2018-05-29T10:34:40.296Z,93902.87
2018-05-29T10:37:07.843Z,93956.59
2018-05-29T10:39:35.722Z,93943.41
2018-05-29T10:42:03.251Z,93908.95
2018-05-29T10:44:30.782Z,93729.56
2018-05-29T10:46:58.631Z,93753.89
2018-05-29T10:49:26.167Z,93661.66
2018-05-29T10:51:53.699Z,93796.45
2018-05-29T10:54:21.254Z,93713.34
2018-05-29T10:56:49.126Z,93711.32
2018-05-29T10:59:16.715Z,93539.04
2018-05-29T11:01:44.214Z,93495.47
2018-05-29T11:04:11.772Z,93467.09
2018-05-29T11:06:39.433Z,93675.85
2018-05-29T11:09:06.979Z,93639.37
2018-05-29T11:11:34.512Z,93510.66
2018-05-29T11:14:02.174Z,93512.69
2018-05-29T11:16:29.722Z,93690.04
2018-05-29T11:18:57.255Z,93726.52
2018-05-29T11:21:25.100Z,93532.96
2018-05-29T11:23:52.634Z,93464.05
2018-05-29T11:26:20.172Z,93382.98
2018-05-29T11:28:47.736Z,93371.83
2018-05-29T11:31:15.348Z,93396.16
2018-05-29T11:33:42.865Z,93322.18
2018-05-29T11:36:10.446Z,93214.77
2018-05-29T11:38:38.060Z,93162.07
2018-05-29T11:41:05.628Z,93133.70
2018-05-29T11:43:33.191Z,93133.70
2018-05-29T11:46:00.759Z,93242.13
2018-05-29T11:48:28.334Z,93221.86
2018-05-29T11:50:56.291Z,93180.31
2018-05-29T11:53:23.810Z,93088.10
2018-05-29T11:55:51.339Z,93031.36
2018-05-29T11:58:19.183Z,92794.27
2018-05-29T12:00:46.720Z,92784.13
2018-05-29T12:03:14.255Z,93024.27
2018-05-29T12:05:41.931Z,92895.59
2018-05-29T12:08:09.468Z,93008.05
2018-05-29T12:10:36.999Z,93040.48
2018-05-29T12:13:04.555Z,93120.53
2018-05-29T12:15:32.079Z,92893.56
2018-05-29T12:17:59.640Z,93040.48
2018-05-29T12:20:27.171Z,93005.02
2018-05-29T12:22:55.187Z,93078.98
2018-05-29T12:25:22.708Z,93027.31
2018-05-29T12:27:50.240Z,92925.98
2018-05-29T12:30:18.099Z,92956.38
2018-05-29T12:32:45.637Z,92907.75
2018-05-29T12:35:13.168Z,92822.64
2018-05-29T12:37:40.728Z,92804.40
2018-05-29T12:40:08.259Z,92754.75
2018-05-29T12:42:35.847Z,92778.05
2018-05-29T12:45:03.411Z,92772.99
2018-05-29T12:47:30.952Z,92787.17
2018-05-29T12:49:58.515Z,92669.65
2018-05-29T12:52:26.053Z,92659.52
2018-05-29T12:54:53.612Z,92572.39
2018-05-29T12:57:21.138Z,92307.97
2018-05-29T12:59:48.699Z,92517.68
2018-05-29T13:02:16.237Z,92689.91
2018-05-29T13:04:43.800Z,92651.41
2018-05-29T13:07:11.328Z,92552.13
2018-05-29T13:09:38.890Z,92608.86
2018-05-29T13:12:06.449Z,92704.09
2018-05-29T13:14:34.017Z,92690.92
2018-05-29T13:17:01.561Z,92632.16
2018-05-29T13:19:29.115Z,92642.30
2018-05-29T13:21:56.672Z,92538.95
2018-05-29T13:24:24.222Z,92530.84
2018-05-29T13:26:51.756Z,92646.34
2018-05-29T13:29:19.344Z,92682.81
2018-05-29T13:31:46.870Z,92663.57
2018-05-29T13:34:14.408Z,92701.06
2018-05-29T13:36:42.486Z,92807.44
2018-05-29T13:39:10.141Z,92914.84
2018-05-29T13:41:37.716Z,92652.42
2018-05-29T13:44:05.287Z,92855.06
2018-05-29T13:46:33.522Z,93198.55
2018-05-29T13:49:01.048Z,92956.38
2018-05-29T13:51:28.593Z,92986.78
2018-05-29T13:53:56.519Z,93244.16
2018-05-29T13:56:24.125Z,93074.93
2018-05-29T13:58:51.644Z,92840.88
2018-05-29T14:01:19.203Z,92714.23
2018-05-29T14:03:46.778Z,92728.41
2018-05-29T14:06:14.311Z,92344.44
2018-05-29T14:08:41.864Z,92661.55
2018-05-29T14:11:09.400Z,92729.42
2018-05-29T14:13:36.969Z,92462.97
2018-05-29T14:16:04.548Z,92541.99
2018-05-29T14:18:32.078Z,92323.17
2018-05-29T14:21:00.506Z,92270.48
2018-05-29T14:23:28.090Z,92404.21
2018-05-29T14:25:55.627Z,92245.16
2018-05-29T14:28:23.168Z,92119.55
2018-05-29T14:30:50.715Z,92004.07
2018-05-29T14:33:18.300Z,92156.02
2018-05-29T14:35:46.287Z,92071.94
2018-05-29T14:38:13.850Z,91927.09
2018-05-29T14:40:41.517Z,92210.72
2018-05-29T14:43:09.308Z,92375.84
2018-05-29T14:45:36.846Z,92513.63
2018-05-29T14:48:04.389Z,92513.63
2018-05-29T14:50:31.948Z,92849.99
2018-05-29T14:52:59.483Z,92616.97
2018-05-29T14:55:27.148Z,93000.97
2018-05-29T14:57:54.684Z,92912.81
2018-05-29T15:00:22.225Z,93262.39
2018-05-29T15:02:49.804Z,93327.24
2018-05-29T15:05:17.336Z,93075.95
2018-05-29T15:07:44.870Z,93170.18
2018-05-29T15:10:12.535Z,93172.20
2018-05-29T15:12:40.069Z,93246.17
2018-05-29T15:15:07.590Z,93157.01
2018-05-29T15:17:35.153Z,93235.03
2018-05-29T15:20:02.741Z,93165.11
2018-05-29T15:22:30.279Z,93106.34
2018-05-29T15:24:57.928Z,93204.63
2018-05-29T15:27:25.471Z,93121.54
2018-05-29T15:29:53.419Z,93310.02
2018-05-29T15:32:20.971Z,93352.58
2018-05-29T15:34:48.490Z,93391.09
2018-05-29T15:37:16.468Z,93563.36
2018-05-29T15:39:43.999Z,93435.67
2018-05-29T15:42:11.577Z,93256.31
2018-05-29T15:44:39.147Z,93429.59
2018-05-29T15:47:06.692Z,93517.76
2018-05-29T15:49:34.247Z,93458.98
2018-05-29T15:52:01.778Z,93537.02
2018-05-29T15:54:29.331Z,93645.45
2018-05-29T15:56:56.871Z,93652.55
2018-05-29T15:59:24.607Z,93653.55
2018-05-29T16:01:52.145Z,93743.75
2018-05-29T16:04:19.689Z,93722.47
2018-05-29T16:06:47.743Z,93669.77
2018-05-29T16:09:15.276Z,93658.63
2018-05-29T16:11:42.820Z,93708.28
2018-05-29T16:14:10.405Z,94694.52
2018-05-29T16:16:37.967Z,95575.56
2018-05-29T16:19:05.931Z,95760.12
2018-05-29T16:21:33.448Z,95798.66
2018-05-29T16:24:00.975Z,96248.92
2018-05-29T16:26:28.930Z,96976.18
2018-05-29T16:28:56.474Z,98204.84
2018-05-29T16:31:24.016Z,99065.47
2018-05-29T16:33:51.965Z,99873.52
2018-05-29T16:36:19.487Z,100143.59
2018-05-29T16:38:47.023Z,100261.37
2018-05-29T16:41:14.609Z,100384.23
2018-05-29T16:43:42.159Z,100202.48
2018-05-29T16:46:09.690Z,100084.70
2018-05-29T16:48:37.628Z,100138.52
2018-05-29T16:51:05.158Z,100257.31
2018-05-29T16:53:32.691Z,100284.73
2018-05-29T16:56:00.247Z,100232.94
2018-05-29T16:58:27.798Z,100256.30
2018-05-29T17:00:55.355Z,100290.81
2018-05-29T17:03:22.931Z,100182.17
2018-05-29T17:05:50.471Z,100200.45
2018-05-29T17:08:18.423Z,100143.59
2018-05-29T17:10:45.982Z,100006.52
2018-05-29T17:13:13.519Z,100034.95
2018-05-29T17:15:41.079Z,99964.90
2018-05-29T17:18:08.649Z,99954.75
2018-05-29T17:20:36.672Z,100133.44
2018-05-29T17:23:04.220Z,100129.38
2018-05-29T17:25:31.759Z,100105.01
2018-05-29T17:27:59.320Z,100249.19
2018-05-29T17:30:26.848Z,100107.04
2018-05-29T17:32:54.402Z,100058.30
2018-05-29T17:35:21.943Z,100087.75
2018-05-29T17:37:49.802Z,100031.91
2018-05-29T17:40:17.368Z,100097.91
2018-05-29T17:42:44.908Z,100161.87
2018-05-29T17:45:12.814Z,100088.77
2018-05-29T17:47:40.379Z,100198.42
2018-05-29T17:50:07.911Z,100272.55
2018-05-29T17:52:35.474Z,100142.58
2018-05-29T17:55:03.032Z,100191.31
2018-05-29T17:57:30.603Z,100178.11
2018-05-29T17:59:58.145Z,100105.01
2018-05-29T18:02:25.842Z,100265.44
2018-05-29T18:04:53.374Z,100198.42
2018-05-29T18:07:20.915Z,100045.11
2018-05-29T18:09:48.897Z,100021.75
2018-05-29T18:12:16.427Z,99818.70
2018-05-29T18:14:43.957Z,99857.28
2018-05-29T18:17:11.950Z,99939.52
2018-05-29T18:19:39.492Z,100000.44
2018-05-29T18:22:07.083Z,99894.84
2018-05-29T18:24:34.631Z,99913.12
2018-05-29T18:27:02.174Z,99962.87
2018-05-29T18:29:29.940Z,99995.36
2018-05-29T18:31:57.475Z,100123.28
2018-05-29T18:34:25.041Z,100029.88
2018-05-29T18:39:45.358Z,100020.73
2018-05-29T18:42:12.887Z,100499.99
2018-05-29T18:44:40.471Z,100593.41
2018-05-29T18:47:08.018Z,100552.80
2018-05-29T18:49:35.616Z,100545.69
2018-05-29T18:52:03.133Z,100580.21
2018-05-29T18:54:30.695Z,100642.16
2018-05-29T18:56:58.227Z,100787.38
2018-05-29T18:59:26.071Z,101100.17
2018-05-29T19:01:53.594Z,101189.55
2018-05-29T19:04:21.147Z,101123.52
2018-05-29T19:06:49.149Z,101156.03
2018-05-29T19:09:16.682Z,101077.83
2018-05-29T19:11:44.206Z,101139.78
2018-05-29T19:14:11.974Z,101146.89
2018-05-29T19:16:39.581Z,101232.20
2018-05-29T19:19:07.090Z,101256.58
2018-05-29T19:21:34.800Z,101229.16
2018-05-29T19:24:02.337Z,101225.09
2018-05-29T19:26:29.893Z,101173.30
2018-05-29T19:28:57.861Z,101212.91
2018-05-29T19:31:25.377Z,101187.52
2018-05-29T19:33:52.893Z,101322.59
2018-05-29T19:36:20.651Z,101309.39
2018-05-29T19:38:48.181Z,101352.05
2018-05-29T19:41:15.698Z,101323.61
2018-05-29T19:43:43.675Z,101351.03
2018-05-29T19:46:11.200Z,101345.95
2018-05-29T19:48:38.720Z,101369.31
2018-05-29T19:51:06.280Z,101360.17
2018-05-29T19:53:33.813Z,101370.33
2018-05-29T19:56:01.498Z,101384.55
2018-05-29T19:58:29.021Z,101412.98
2018-05-29T20:00:56.545Z,101408.93
2018-05-29T20:03:29.985Z,101361.19
2018-05-29T20:05:57.507Z,101312.44
2018-05-29T20:08:25.033Z,101352.05
2018-05-29T20:10:52.573Z,101358.14
2018-05-29T20:13:20.107Z,101398.77
2018-05-29T20:15:47.654Z,101341.89
2018-05-29T20:18:15.188Z,101400.80
2018-05-29T20:20:42.759Z,101406.90
2018-05-29T20:23:10.318Z,101481.05
2018-05-29T20:25:37.845Z,101496.28
2018-05-29T20:28:05.390Z,101490.19
2018-05-29T20:30:32.923Z,101480.03
2018-05-29T20:33:00.469Z,101492.22
2018-05-29T20:35:28.019Z,101464.80
2018-05-29T20:37:55.546Z,101475.96
2018-05-29T20:40:23.097Z,101461.74
2018-05-29T20:42:51.063Z,101458.70
2018-05-29T20:45:18.720Z,101434.31
2018-05-29T20:47:46.241Z,101485.11
2018-05-29T20:50:13.790Z,101451.59
2018-05-29T20:52:41.319Z,101472.91
2018-05-29T20:55:08.869Z,101441.43
2018-05-29T20:57:36.614Z,101455.65
2018-05-29T21:00:04.143Z,101430.26
2018-05-29T21:02:31.683Z,101439.40
2018-05-29T21:04:59.235Z,101318.53
2018-05-29T21:07:26.781Z,101356.11
2018-05-29T21:09:54.301Z,101435.34
2018-05-29T21:12:22.041Z,101456.66
2018-05-29T21:14:49.566Z,101484.09
2018-05-29T21:17:17.090Z,101503.39
2018-05-29T21:19:44.649Z,101493.23
2018-05-29T21:22:12.215Z,101452.60
2018-05-29T21:24:40.122Z,101435.34
2018-05-29T21:27:07.643Z,101444.48
2018-05-29T21:29:35.166Z,101422.13
2018-05-29T21:32:02.869Z,101386.58
2018-05-29T21:34:30.412Z,101369.31
2018-05-29T21:36:57.937Z,101344.94
2018-05-29T21:39:25.874Z,101336.81
2018-05-29T21:41:53.402Z,101342.91
2018-05-29T21:44:20.929Z,101318.53
2018-05-29T21:46:48.469Z,101347.98
2018-05-29T21:49:16.004Z,101339.86
2018-05-29T21:51:43.562Z,101362.20
2018-05-29T21:54:11.110Z,101363.22
2018-05-29T21:56:39.064Z,101282.98
2018-05-29T21:59:06.603Z,101288.06
2018-05-29T22:01:34.126Z,101313.45
2018-05-29T22:04:03.666Z,101305.33
2018-05-29T22:06:31.196Z,101318.53
2018-05-29T22:08:58.731Z,101276.89
2018-05-29T22:11:26.283Z,101278.92
2018-05-29T22:13:53.805Z,101258.61
2018-05-29T22:16:21.355Z,101260.64
2018-05-29T22:18:48.881Z,101299.23
2018-05-29T22:21:16.580Z,101210.88
2018-05-29T22:23:45.016Z,101264.70
2018-05-29T22:26:12.559Z,101178.37
2018-05-29T22:28:40.122Z,101228.14
2018-05-29T22:31:07.669Z,101196.66
2018-05-29T22:33:35.207Z,101155.02
2018-05-29T22:36:02.927Z,101158.06
2018-05-29T22:38:30.463Z,101200.72
2018-05-29T22:40:58.000Z,101178.37
2018-05-29T22:43:25.550Z,101172.28
2018-05-29T22:45:53.078Z,101200.72
2018-05-29T22:48:20.659Z,101119.47
2018-05-29T22:50:48.185Z,101089.00
2018-05-29T22:53:15.713Z,101100.17
2018-05-29T22:55:43.271Z,101090.02
2018-05-29T22:58:10.798Z,101102.20
2018-05-29T23:00:38.331Z,101123.52
2018-05-29T23:03:05.886Z,101167.20
2018-05-29T23:05:33.495Z,101166.18
2018-05-29T23:08:01.067Z,101162.13
2018-05-29T23:10:28.626Z,101171.27
2018-05-29T23:12:56.626Z,101180.40
2018-05-29T23:15:24.153Z,101174.31
2018-05-29T23:17:51.674Z,101189.55
2018-05-29T23:20:19.237Z,101187.52
2018-05-29T23:22:46.770Z,101202.75
2018-05-29T23:25:14.335Z,101210.88
2018-05-29T23:27:41.883Z,101217.98
2018-05-29T23:30:09.446Z,101249.47
2018-05-29T23:32:37.024Z,101217.98
2018-05-29T23:35:04.591Z,101219.00
2018-05-29T23:37:32.186Z,101249.47
2018-05-29T23:39:59.721Z,101240.33
2018-05-29T23:42:27.283Z,101219.00
2018-05-29T23:44:54.973Z,101229.16
2018-05-29T23:47:22.511Z,101206.81
2018-05-29T23:49:50.047Z,101191.58
2018-05-29T23:52:17.593Z,101204.78
2018-05-29T23:54:45.152Z,101186.50
2018-05-29T23:57:13.134Z,101177.36
2018-05-29T23:59:40.669Z,101164.15
